createdAt,value
2019-03-18T00:01:09.187Z,1.33
2019-03-18T00:04:15.712Z,0.67
2019-03-18T00:07:22.107Z,0.40
2019-03-18T00:10:28.381Z,0.53
2019-03-18T00:13:35.247Z,0.40
2019-03-18T00:16:42.011Z,0.93
2019-03-18T00:19:48.715Z,0.50
2019-03-18T00:22:55.333Z,0.57
2019-03-18T00:26:02.076Z,0.40
2019-03-18T00:29:08.437Z,0.90
2019-03-18T00:32:14.954Z,0.77
2019-03-18T00:35:21.479Z,0.70
2019-03-18T00:38:28.298Z,0.80
2019-03-18T00:41:37.977Z,0.70
2019-03-18T00:44:44.336Z,0.43
2019-03-18T00:47:50.761Z,0.60
2019-03-18T00:50:57.161Z,1.40
2019-03-18T00:54:03.516Z,0.90
2019-03-18T00:57:10.107Z,0.50
2019-03-18T01:00:16.996Z,1.00
2019-03-18T01:03:23.184Z,0.50
2019-03-18T01:06:29.803Z,4.33
2019-03-18T01:09:36.143Z,0.60
2019-03-18T01:12:43.023Z,0.67
2019-03-18T01:15:49.607Z,1.73
2019-03-18T01:18:56.356Z,0.63
2019-03-18T01:22:03.410Z,2.93
2019-03-18T01:25:10.088Z,0.97
2019-03-18T01:28:16.591Z,0.47
2019-03-18T01:31:24.122Z,1.43
2019-03-18T01:34:31.188Z,1.30
2019-03-18T01:37:39.287Z,0.90
2019-03-18T01:40:45.858Z,3.63
2019-03-18T01:43:52.402Z,1.90
2019-03-18T01:46:58.951Z,1.63
2019-03-18T01:50:06.466Z,0.77
2019-03-18T01:53:12.833Z,1.10
2019-03-18T01:56:19.182Z,1.13
2019-03-18T01:59:25.767Z,1.10
2019-03-18T02:02:32.296Z,1.23
2019-03-18T02:05:38.539Z,0.70
2019-03-18T02:08:45.195Z,1.07
2019-03-18T02:11:52.254Z,0.70
2019-03-18T02:14:58.505Z,2.00
2019-03-18T02:18:05.459Z,1.13
2019-03-18T02:21:12.209Z,1.17
2019-03-18T02:24:18.977Z,2.00
2019-03-18T02:27:25.427Z,0.80
2019-03-18T02:30:31.980Z,2.27
2019-03-18T02:33:38.309Z,1.57
2019-03-18T02:36:45.220Z,2.20
2019-03-18T02:39:51.969Z,0.80
2019-03-18T02:43:00.011Z,0.80
2019-03-18T02:46:10.337Z,2.63
2019-03-18T02:49:14.327Z,3.80
2019-03-18T02:52:20.445Z,1.30
2019-03-18T02:55:27.251Z,0.93
2019-03-18T02:58:33.801Z,1.03
2019-03-18T03:01:40.451Z,1.37
2019-03-18T03:04:47.032Z,2.50
2019-03-18T03:07:53.405Z,3.03
2019-03-18T03:10:59.918Z,3.40
2019-03-18T03:14:06.493Z,1.73
2019-03-18T03:17:12.969Z,1.37
2019-03-18T03:20:19.482Z,1.80
2019-03-18T03:23:26.131Z,1.90
2019-03-18T03:26:32.486Z,2.53
2019-03-18T03:29:39.354Z,8.50
2019-03-18T03:32:46.103Z,6.03
2019-03-18T03:35:54.293Z,0.90
2019-03-18T03:39:01.032Z,1.23
2019-03-18T03:42:08.921Z,1.73
2019-03-18T03:45:15.983Z,3.37
2019-03-18T03:48:22.563Z,2.47
2019-03-18T03:51:29.159Z,3.77
2019-03-18T03:54:35.571Z,3.60
2019-03-18T03:57:41.851Z,4.83
2019-03-18T04:00:48.930Z,1.43
2019-03-18T04:03:55.019Z,1.17
2019-03-18T04:07:02.671Z,1.30
2019-03-18T04:10:08.953Z,5.47
2019-03-18T04:13:16.037Z,1.03
2019-03-18T04:16:22.491Z,0.83
2019-03-18T04:19:28.889Z,1.00
2019-03-18T04:22:35.654Z,1.67
2019-03-18T04:25:42.202Z,4.33
2019-03-18T04:28:48.726Z,1.27
2019-03-18T04:31:54.931Z,2.10
2019-03-18T04:35:01.545Z,3.90
2019-03-18T04:38:07.838Z,3.43
2019-03-18T04:41:15.242Z,5.07
2019-03-18T04:44:21.890Z,1.53
2019-03-18T04:47:28.519Z,2.30
2019-03-18T04:50:35.082Z,3.50
2019-03-18T04:53:41.321Z,0.90
2019-03-18T04:56:47.822Z,1.40
2019-03-18T04:59:54.217Z,4.20
2019-03-18T05:03:00.883Z,1.30
2019-03-18T05:06:07.537Z,3.33
2019-03-18T05:09:13.822Z,1.00
2019-03-18T05:12:21.138Z,13.97
2019-03-18T05:15:28.446Z,1.63
2019-03-18T05:18:36.682Z,2.77
2019-03-18T05:21:43.252Z,5.20
2019-03-18T05:24:49.909Z,2.70
2019-03-18T05:27:56.543Z,2.93
2019-03-18T05:31:03.469Z,1.70
2019-03-18T05:34:09.912Z,2.00
2019-03-18T05:37:16.788Z,2.53
2019-03-18T05:40:22.957Z,1.70
2019-03-18T05:43:29.767Z,1.67
2019-03-18T05:46:36.615Z,2.03
2019-03-18T05:49:42.936Z,3.97
2019-03-18T05:52:49.197Z,5.20
2019-03-18T05:55:56.092Z,1.20
2019-03-18T05:59:02.730Z,6.97
2019-03-18T06:02:09.861Z,2.37
2019-03-18T06:05:16.299Z,6.83
2019-03-18T06:08:22.850Z,2.63
2019-03-18T06:11:29.367Z,4.50
2019-03-18T06:14:36.128Z,1.63
2019-03-18T06:17:52.436Z,3.27
2019-03-18T06:20:50.940Z,1.90
2019-03-18T06:23:57.428Z,1.23
2019-03-18T06:27:04.140Z,1.70
2019-03-18T06:30:11.333Z,1.10
2019-03-18T06:33:17.878Z,1.20
2019-03-18T06:36:24.428Z,1.80
2019-03-18T06:39:30.853Z,1.00
2019-03-18T06:42:37.490Z,2.03
2019-03-18T06:45:44.133Z,4.33
2019-03-18T06:48:50.912Z,1.53
2019-03-18T06:51:57.345Z,1.23
2019-03-18T06:55:04.419Z,2.53
2019-03-18T06:58:11.207Z,2.30
2019-03-18T07:01:18.405Z,1.77
2019-03-18T07:04:24.736Z,0.97
2019-03-18T07:07:31.254Z,2.53
2019-03-18T07:10:38.123Z,2.47
2019-03-18T07:13:44.902Z,3.70
2019-03-18T07:16:51.552Z,1.27
2019-03-18T07:19:58.429Z,1.53
2019-03-18T07:23:06.040Z,1.40
2019-03-18T07:26:13.350Z,1.47
2019-03-18T07:29:20.678Z,1.33
2019-03-18T07:32:27.144Z,3.40
2019-03-18T07:35:33.857Z,5.00
2019-03-18T07:38:40.577Z,3.90
2019-03-18T07:41:47.861Z,3.20
2019-03-18T07:44:54.379Z,1.40
2019-03-18T07:48:01.304Z,5.67
2019-03-18T07:51:07.973Z,4.00
2019-03-18T07:54:14.842Z,1.20
2019-03-18T07:57:21.194Z,2.90
2019-03-18T08:00:27.811Z,3.17
2019-03-18T08:03:36.451Z,1.60
2019-03-18T08:06:42.182Z,1.63
2019-03-18T08:09:49.124Z,2.13
2019-03-18T08:12:55.791Z,1.60
2019-03-18T08:16:02.798Z,2.63
2019-03-18T08:19:09.504Z,3.83
2019-03-18T08:22:15.853Z,3.03
2019-03-18T08:25:23.065Z,2.93
2019-03-18T08:28:29.316Z,2.60
2019-03-18T08:31:37.068Z,1.90
2019-03-18T08:34:43.896Z,2.30
2019-03-18T08:37:50.759Z,1.47
2019-03-18T08:40:57.663Z,2.50
2019-03-18T08:44:04.168Z,3.10
2019-03-18T08:47:10.624Z,3.50
2019-03-18T08:50:17.223Z,1.30
2019-03-18T08:53:24.114Z,1.07
2019-03-18T08:56:30.823Z,1.60
2019-03-18T08:59:37.936Z,1.40
2019-03-18T09:02:44.360Z,2.10
2019-03-18T09:05:52.014Z,2.20
2019-03-18T09:08:58.607Z,1.43
2019-03-18T09:12:06.970Z,2.13
2019-03-18T09:15:13.641Z,1.50
2019-03-18T09:18:20.563Z,1.17
2019-03-18T09:21:27.503Z,2.70
2019-03-18T09:24:34.771Z,1.30
2019-03-18T09:27:41.779Z,1.17
2019-03-18T09:30:48.336Z,2.63
2019-03-18T09:33:55.303Z,0.80
2019-03-18T09:37:02.262Z,0.90
2019-03-18T09:40:09.167Z,0.73
2019-03-18T09:43:15.876Z,1.23
2019-03-18T09:46:22.977Z,1.07
2019-03-18T09:49:29.510Z,9.20
2019-03-18T09:52:37.960Z,2.00
2019-03-18T09:55:44.594Z,1.40
2019-03-18T09:58:51.048Z,2.10
2019-03-18T10:01:57.351Z,2.87
2019-03-18T10:05:04.747Z,3.17
2019-03-18T10:08:11.016Z,1.73
2019-03-18T10:11:17.865Z,0.70
2019-03-18T10:14:24.562Z,1.03
2019-03-18T10:17:31.082Z,2.10
2019-03-18T10:20:37.559Z,1.33
2019-03-18T10:23:44.435Z,0.60
2019-03-18T10:26:51.040Z,0.67
2019-03-18T10:29:59.713Z,0.80
2019-03-18T10:33:06.313Z,0.43
2019-03-18T10:36:13.718Z,3.07
2019-03-18T10:39:20.270Z,1.50
2019-03-18T10:42:27.176Z,0.80
2019-03-18T10:45:33.895Z,0.67
2019-03-18T10:48:40.702Z,0.70
2019-03-18T10:51:48.426Z,0.70
2019-03-18T10:54:55.677Z,0.70
2019-03-18T10:58:02.495Z,2.30
2019-03-18T11:01:09.726Z,0.60
2019-03-18T11:04:15.807Z,3.17
2019-03-18T11:07:22.195Z,0.70
2019-03-18T11:10:28.974Z,2.00
2019-03-18T11:13:35.732Z,0.80
2019-03-18T11:16:42.391Z,0.90
2019-03-18T11:19:57.980Z,0.80
2019-03-18T11:22:57.387Z,0.67
2019-03-18T11:26:03.942Z,1.13
2019-03-18T11:29:10.971Z,1.03
2019-03-18T11:32:17.025Z,1.60
2019-03-18T11:35:23.352Z,0.67
2019-03-18T11:38:31.965Z,0.73
2019-03-18T11:41:39.258Z,6.43
2019-03-18T11:44:45.748Z,1.23
2019-03-18T11:47:52.587Z,0.63
2019-03-18T11:50:59.257Z,0.70
2019-03-18T11:54:06.208Z,1.13
2019-03-18T11:57:13.245Z,1.00
2019-03-18T12:00:20.125Z,1.37
2019-03-18T12:03:26.589Z,0.63
2019-03-18T12:06:33.396Z,1.37
2019-03-18T12:09:40.936Z,0.50
2019-03-18T12:12:48.676Z,4.57
2019-03-18T12:15:55.641Z,0.80
2019-03-18T12:19:02.462Z,2.10
2019-03-18T12:22:08.951Z,0.93
2019-03-18T12:25:15.694Z,1.60
2019-03-18T12:28:22.552Z,1.07
2019-03-18T12:31:30.450Z,0.83
2019-03-18T12:34:37.282Z,3.70
2019-03-18T12:37:44.488Z,2.47
2019-03-18T12:40:51.418Z,1.70
2019-03-18T12:43:58.155Z,2.83
2019-03-18T12:47:05.382Z,2.53
2019-03-18T12:50:16.297Z,1.30
2019-03-18T12:53:22.978Z,4.20
2019-03-18T12:56:29.413Z,0.70
2019-03-18T12:59:36.421Z,1.67
2019-03-18T13:02:42.720Z,1.87
2019-03-18T13:05:49.410Z,4.30
2019-03-18T13:08:56.454Z,1.27
2019-03-18T13:12:03.371Z,1.50
2019-03-18T13:15:11.481Z,5.00
2019-03-18T13:18:18.601Z,1.37
2019-03-18T13:21:26.054Z,1.10
2019-03-18T13:24:32.916Z,1.67
2019-03-18T13:27:39.706Z,4.47
2019-03-18T13:30:46.553Z,1.60
2019-03-18T13:33:53.331Z,0.97
2019-03-18T13:36:59.665Z,2.83
2019-03-18T13:40:08.078Z,1.37
2019-03-18T13:43:14.613Z,0.70
2019-03-18T13:46:21.483Z,0.77
2019-03-18T13:49:28.172Z,0.77
2019-03-18T13:52:35.450Z,1.23
2019-03-18T13:55:42.748Z,3.07
2019-03-18T13:58:50.245Z,4.20
2019-03-18T14:01:57.315Z,2.33
2019-03-18T14:05:06.578Z,4.87
2019-03-18T14:08:14.804Z,2.20
2019-03-18T14:11:21.767Z,2.80
2019-03-18T14:14:28.512Z,3.07
2019-03-18T14:17:35.033Z,1.77
2019-03-18T14:20:41.732Z,1.77
2019-03-18T14:23:48.630Z,0.67
2019-03-18T14:26:55.453Z,1.60
2019-03-18T14:30:02.339Z,0.60
2019-03-18T14:33:08.787Z,6.10
2019-03-18T14:36:15.218Z,1.07
2019-03-18T14:39:21.831Z,3.90
2019-03-18T14:42:28.979Z,2.40
2019-03-18T14:45:35.969Z,2.23
2019-03-18T14:48:42.563Z,2.10
2019-03-18T14:51:49.027Z,4.73
2019-03-18T14:54:55.539Z,1.13
2019-03-18T14:58:05.368Z,3.90
2019-03-18T15:01:12.388Z,1.43
2019-03-18T15:04:18.703Z,1.23
2019-03-18T15:07:25.803Z,1.73
2019-03-18T15:10:32.757Z,2.23
2019-03-18T15:13:39.872Z,2.20
2019-03-18T15:16:47.112Z,0.77
2019-03-18T15:19:54.077Z,1.60
2019-03-18T15:23:00.650Z,5.93
2019-03-18T15:26:10.622Z,2.07
2019-03-18T15:29:20.988Z,3.17
2019-03-18T15:32:28.165Z,3.80
2019-03-18T15:35:34.796Z,5.80
2019-03-18T15:38:42.076Z,3.07
2019-03-18T15:41:48.865Z,1.77
2019-03-18T15:44:55.465Z,1.40
2019-03-18T15:48:02.103Z,5.77
2019-03-18T15:51:09.309Z,8.60
2019-03-18T15:54:16.030Z,2.50
2019-03-18T15:57:29.473Z,1.70
2019-03-18T16:00:31.342Z,0.93
2019-03-18T16:03:38.121Z,3.87
2019-03-18T16:06:44.787Z,5.17
2019-03-18T16:09:51.710Z,6.07
2019-03-18T16:12:58.411Z,0.73
2019-03-18T16:16:04.913Z,5.90
2019-03-18T16:19:11.641Z,0.90
2019-03-18T16:22:23.364Z,4.80
2019-03-18T16:25:26.812Z,1.10
2019-03-18T16:28:33.152Z,1.53
2019-03-18T16:31:42.254Z,3.23
2019-03-18T16:34:50.084Z,4.00
2019-03-18T16:37:56.657Z,0.77
2019-03-18T16:41:03.488Z,0.70
2019-03-18T16:44:10.071Z,1.20
2019-03-18T16:47:17.231Z,2.03
2019-03-18T16:50:24.337Z,3.40
2019-03-18T16:53:31.162Z,5.33
2019-03-18T16:56:38.330Z,1.20
2019-03-18T16:59:45.662Z,2.00
2019-03-18T17:02:52.170Z,2.57
2019-03-18T17:05:59.228Z,1.67
2019-03-18T17:09:08.210Z,5.47
2019-03-18T17:12:15.640Z,1.93
2019-03-18T17:15:22.312Z,5.93
2019-03-18T17:18:28.803Z,3.10
2019-03-18T17:21:36.426Z,2.97
2019-03-18T17:24:43.671Z,1.50
2019-03-18T17:27:50.496Z,5.17
2019-03-18T17:30:57.223Z,6.77
2019-03-18T17:34:04.237Z,5.27
2019-03-18T17:37:10.961Z,4.53
2019-03-18T17:40:17.421Z,2.77
2019-03-18T17:43:24.555Z,4.27
2019-03-18T17:46:31.369Z,3.47
2019-03-18T17:49:38.124Z,1.90
2019-03-18T17:52:44.948Z,4.40
2019-03-18T17:55:51.697Z,1.90
2019-03-18T17:58:58.360Z,5.70
2019-03-18T18:02:05.125Z,5.00
2019-03-18T18:05:12.074Z,4.30
2019-03-18T18:08:18.831Z,2.97
2019-03-18T18:11:25.267Z,5.50
2019-03-18T18:14:33.601Z,10.87
2019-03-18T18:17:40.170Z,10.23
2019-03-18T18:20:47.944Z,14.90
2019-03-18T18:23:54.701Z,24.50
2019-03-18T18:27:01.362Z,24.60
2019-03-18T18:30:08.641Z,19.90
2019-03-18T18:33:15.713Z,8.93
2019-03-18T18:36:25.305Z,11.30
2019-03-18T18:39:32.333Z,13.03
2019-03-18T18:42:39.223Z,11.43
2019-03-18T18:45:46.125Z,12.70
2019-03-18T18:48:52.849Z,20.03
2019-03-18T18:52:00.404Z,67.63
2019-03-18T18:55:08.525Z,63.50
2019-03-18T18:58:15.775Z,29.20
2019-03-18T19:01:23.492Z,37.93
2019-03-18T19:04:30.358Z,27.73
2019-03-18T19:07:37.526Z,34.73
2019-03-18T19:10:44.286Z,27.33
2019-03-18T19:13:51.474Z,20.03
2019-03-18T19:16:58.766Z,16.23
2019-03-18T19:20:06.161Z,13.10
2019-03-18T19:23:13.219Z,11.23
2019-03-18T19:26:20.099Z,15.30
2019-03-18T19:29:27.228Z,18.87
2019-03-18T19:32:33.958Z,7.40
2019-03-18T19:35:40.762Z,13.33
2019-03-18T19:38:47.286Z,15.67
2019-03-18T19:41:55.164Z,12.33
2019-03-18T19:45:02.416Z,7.07
2019-03-18T19:48:13.878Z,14.50
2019-03-18T19:51:24.213Z,11.87
2019-03-18T19:54:30.874Z,16.10
2019-03-18T19:57:37.688Z,5.67
2019-03-18T20:00:44.441Z,2.90
2019-03-18T20:03:51.046Z,3.50
2019-03-18T20:06:57.965Z,6.03
2019-03-18T20:10:06.899Z,2.27
2019-03-18T20:13:14.739Z,2.47
2019-03-18T20:16:21.527Z,5.53
2019-03-18T20:19:28.590Z,9.23
2019-03-18T20:22:35.722Z,7.80
2019-03-18T20:25:43.517Z,3.60
2019-03-18T20:28:50.205Z,6.93
2019-03-18T20:31:58.436Z,3.50
2019-03-18T20:35:06.473Z,5.03
2019-03-18T20:38:13.535Z,5.80
2019-03-18T20:41:20.291Z,9.37
2019-03-18T20:44:27.114Z,20.83
2019-03-18T20:47:37.114Z,46.30
2019-03-18T20:50:43.483Z,9.47
2019-03-18T20:53:49.956Z,12.57
2019-03-18T20:56:57.151Z,7.00
2019-03-18T21:00:06.229Z,10.73
2019-03-18T21:03:15.035Z,5.63
2019-03-18T21:06:21.675Z,3.70
2019-03-18T21:09:28.257Z,7.57
2019-03-18T21:12:35.407Z,3.37
2019-03-18T21:15:42.528Z,7.30
2019-03-18T21:18:49.013Z,3.87
2019-03-18T21:21:55.273Z,8.43
2019-03-18T21:25:04.837Z,6.50
2019-03-18T21:28:13.549Z,17.77
2019-03-18T21:31:22.183Z,9.97
2019-03-18T21:34:28.767Z,8.20
2019-03-18T21:37:35.692Z,6.80
2019-03-18T21:40:42.321Z,7.37
2019-03-18T21:43:49.140Z,12.03
2019-03-18T21:46:55.534Z,9.20
2019-03-18T21:50:01.861Z,5.10
2019-03-18T21:53:08.829Z,7.63
2019-03-18T21:56:15.361Z,4.57
2019-03-18T21:59:22.379Z,2.70
2019-03-18T22:02:29.056Z,6.20
2019-03-18T22:05:35.743Z,14.57
2019-03-18T22:08:42.582Z,12.80
2019-03-18T22:11:49.812Z,9.60
2019-03-18T22:14:56.549Z,4.37
2019-03-18T22:18:03.491Z,11.10
2019-03-18T22:21:10.045Z,10.70
2019-03-18T22:24:16.626Z,7.80
2019-03-18T22:27:23.088Z,23.53
2019-03-18T22:30:29.546Z,24.40
2019-03-18T22:33:36.101Z,21.00
2019-03-18T22:36:42.510Z,13.23
2019-03-18T22:39:48.810Z,12.83
2019-03-18T22:42:55.534Z,18.10
2019-03-18T22:46:01.893Z,18.73
2019-03-18T22:49:08.864Z,10.03
2019-03-18T22:52:15.432Z,3.40
2019-03-18T22:55:22.550Z,4.30
2019-03-18T22:58:28.698Z,19.00
2019-03-18T23:01:35.797Z,63.50
2019-03-18T23:04:42.720Z,44.77
2019-03-18T23:07:49.073Z,56.00
2019-03-18T23:10:55.667Z,51.03
2019-03-18T23:14:02.186Z,47.47
2019-03-18T23:17:09.147Z,20.10
2019-03-18T23:20:16.046Z,12.83
2019-03-18T23:23:22.627Z,11.50
2019-03-18T23:26:29.207Z,3.90
2019-03-18T23:29:35.887Z,3.70
2019-03-18T23:32:42.738Z,2.43
2019-03-18T23:35:49.465Z,7.30
2019-03-18T23:38:56.096Z,9.37
2019-03-18T23:42:03.198Z,10.13
2019-03-18T23:45:09.754Z,6.50
2019-03-18T23:48:16.279Z,4.20
2019-03-18T23:51:23.554Z,2.70
2019-03-18T23:54:30.684Z,3.77
2019-03-18T23:57:37.261Z,9.43
